sensor_id;sensor_type;location;lat;lon;timestamp;pressure;altitude;pressure_sealevel;temperature;humidity
14117;BME280;7137;51.436;6.544;2022-10-31T00:02:27;101656.06;;;16.21;93.42
14117;BME280;7137;51.436;6.544;2022-10-31T00:05:28;101657.00;;;16.20;93.35
14117;BME280;7137;51.436;6.544;2022-10-31T00:08:30;101661.44;;;16.18;92.01
14117;BME280;7137;51.436;6.544;2022-10-31T00:11:33;101658.00;;;16.16;92.25
14117;BME280;7137;51.436;6.544;2022-10-31T00:14:34;101660.72;;;16.15;93.37
14117;BME280;7137;51.436;6.544;2022-10-31T00:17:35;101651.78;;;16.19;91.39
14117;BME280;7137;51.436;6.544;2022-10-31T00:20:37;101658.88;;;16.17;91.66
14117;BME280;7137;51.436;6.544;2022-10-31T00:23:39;101668.63;;;16.15;92.67
14117;BME280;7137;51.436;6.544;2022-10-31T00:26:42;101658.13;;;16.13;92.12
14117;BME280;7137;51.436;6.544;2022-10-31T00:29:43;101661.75;;;16.11;92.92
14117;BME280;7137;51.436;6.544;2022-10-31T00:32:44;101663.66;;;16.07;92.85
14117;BME280;7137;51.436;6.544;2022-10-31T00:35:49;101670.59;;;16.10;93.34
14117;BME280;7137;51.436;6.544;2022-10-31T00:38:50;101670.66;;;16.08;93.98
14117;BME280;7137;51.436;6.544;2022-10-31T00:41:53;101672.38;;;16.09;92.72
14117;BME280;7137;51.436;6.544;2022-10-31T00:44:54;101659.84;;;16.14;92.23
14117;BME280;7137;51.436;6.544;2022-10-31T00:47:56;101659.19;;;16.09;93.53
14117;BME280;7137;51.436;6.544;2022-10-31T00:50:57;101668.81;;;16.10;91.05
14117;BME280;7137;51.436;6.544;2022-10-31T00:53:59;101659.34;;;16.04;93.73
14117;BME280;7137;51.436;6.544;2022-10-31T00:57:02;101651.63;;;16.00;93.18
14117;BME280;7137;51.436;6.544;2022-10-31T01:00:04;101656.34;;;15.92;93.22
14117;BME280;7137;51.436;6.544;2022-10-31T01:03:06;101657.56;;;15.83;92.58
14117;BME280;7137;51.436;6.544;2022-10-31T01:06:09;101652.56;;;15.76;94.26
14117;BME280;7137;51.436;6.544;2022-10-31T01:09:10;101657.34;;;15.66;92.99
14117;BME280;7137;51.436;6.544;2022-10-31T01:12:13;101661.31;;;15.53;92.13
14117;BME280;7137;51.436;6.544;2022-10-31T01:15:17;101668.91;;;15.37;93.62
14117;BME280;7137;51.436;6.544;2022-10-31T01:18:19;101665.03;;;15.22;95.30
14117;BME280;7137;51.436;6.544;2022-10-31T01:21:22;101662.63;;;15.16;95.01
14117;BME280;7137;51.436;6.544;2022-10-31T01:24:24;101646.34;;;15.05;94.18
14117;BME280;7137;51.436;6.544;2022-10-31T01:27:27;101649.31;;;14.96;96.09
14117;BME280;7137;51.436;6.544;2022-10-31T01:30:28;101657.44;;;14.88;96.12
14117;BME280;7137;51.436;6.544;2022-10-31T01:33:30;101657.78;;;14.79;95.82
14117;BME280;7137;51.436;6.544;2022-10-31T01:36:33;101651.00;;;14.72;96.60
14117;BME280;7137;51.436;6.544;2022-10-31T01:39:35;101660.88;;;14.65;96.67
14117;BME280;7137;51.436;6.544;2022-10-31T01:42:37;101658.44;;;14.59;96.92
14117;BME280;7137;51.436;6.544;2022-10-31T01:45:39;101653.31;;;14.54;97.09
14117;BME280;7137;51.436;6.544;2022-10-31T01:48:41;101656.88;;;14.53;97.19
14117;BME280;7137;51.436;6.544;2022-10-31T01:51:47;101658.75;;;14.50;96.46
14117;BME280;7137;51.436;6.544;2022-10-31T01:54:53;101660.59;;;14.46;96.91
14117;BME280;7137;51.436;6.544;2022-10-31T01:57:58;101657.16;;;14.44;98.13
14117;BME280;7137;51.436;6.544;2022-10-31T02:01:01;101656.38;;;14.41;96.89
14117;BME280;7137;51.436;6.544;2022-10-31T02:04:04;101656.38;;;14.41;97.60
14117;BME280;7137;51.436;6.544;2022-10-31T02:07:10;101646.81;;;14.38;98.10
14117;BME280;7137;51.436;6.544;2022-10-31T02:14:11;101653.97;;;14.33;98.12
14117;BME280;7137;51.436;6.544;2022-10-31T02:17:14;101651.41;;;14.32;98.27
14117;BME280;7137;51.436;6.544;2022-10-31T02:20:18;101654.94;;;14.31;98.24
14117;BME280;7137;51.436;6.544;2022-10-31T02:23:56;101648.06;;;14.26;97.52
14117;BME280;7137;51.436;6.544;2022-10-31T02:27:13;101652.59;;;14.21;98.01
14117;BME280;7137;51.436;6.544;2022-10-31T02:30:20;101658.84;;;14.17;98.70
14117;BME280;7137;51.436;6.544;2022-10-31T02:33:29;101655.47;;;14.14;98.89
14117;BME280;7137;51.436;6.544;2022-10-31T02:36:37;101642.47;;;14.09;98.65
14117;BME280;7137;51.436;6.544;2022-10-31T02:39:47;101639.97;;;14.05;98.77
14117;BME280;7137;51.436;6.544;2022-10-31T02:43:00;101638.22;;;14.05;99.04
14117;BME280;7137;51.436;6.544;2022-10-31T02:46:09;101635.50;;;14.08;98.93
14117;BME280;7137;51.436;6.544;2022-10-31T02:49:21;101627.66;;;14.07;98.39
14117;BME280;7137;51.436;6.544;2022-10-31T02:52:25;101638.31;;;14.02;98.35
14117;BME280;7137;51.436;6.544;2022-10-31T02:55:47;101632.31;;;13.99;99.23
14117;BME280;7137;51.436;6.544;2022-10-31T02:58:52;101638.41;;;13.99;98.33
14117;BME280;7137;51.436;6.544;2022-10-31T03:02:15;101638.56;;;13.94;98.44
14117;BME280;7137;51.436;6.544;2022-10-31T03:05:36;101636.00;;;13.91;98.98
14117;BME280;7137;51.436;6.544;2022-10-31T03:08:44;101637.88;;;13.88;99.74
14117;BME280;7137;51.436;6.544;2022-10-31T03:11:58;101639.63;;;13.87;100.00
14117;BME280;7137;51.436;6.544;2022-10-31T03:15:08;101637.88;;;13.88;100.00
14117;BME280;7137;51.436;6.544;2022-10-31T03:18:15;101641.50;;;13.84;99.52
14117;BME280;7137;51.436;6.544;2022-10-31T03:21:22;101643.28;;;13.83;100.00
14117;BME280;7137;51.436;6.544;2022-10-31T03:24:33;101647.78;;;13.78;99.04
14117;BME280;7137;51.436;6.544;2022-10-31T03:27:37;101647.97;;;13.72;99.26
14117;BME280;7137;51.436;6.544;2022-10-31T03:30:43;101646.41;;;13.66;99.91
14117;BME280;7137;51.436;6.544;2022-10-31T03:33:46;101649.13;;;13.62;99.37
14117;BME280;7137;51.436;6.544;2022-10-31T03:36:53;101651.88;;;13.59;98.97
14117;BME280;7137;51.436;6.544;2022-10-31T03:39:57;101649.44;;;13.53;99.19
14117;BME280;7137;51.436;6.544;2022-10-31T03:43:07;101644.25;;;13.50;98.85
14117;BME280;7137;51.436;6.544;2022-10-31T03:46:10;101643.56;;;13.43;99.90
14117;BME280;7137;51.436;6.544;2022-10-31T03:49:12;101638.47;;;13.39;100.00
14117;BME280;7137;51.436;6.544;2022-10-31T03:52:20;101644.63;;;13.38;100.00
14117;BME280;7137;51.436;6.544;2022-10-31T03:55:26;101648.97;;;13.39;98.95
14117;BME280;7137;51.436;6.544;2022-10-31T03:58:34;101646.28;;;13.40;99.77
14117;BME280;7137;51.436;6.544;2022-10-31T04:01:42;101646.34;;;13.39;99.47
14117;BME280;7137;51.436;6.544;2022-10-31T04:04:46;101629.69;;;13.40;100.00
14117;BME280;7137;51.436;6.544;2022-10-31T04:07:54;101642.53;;;13.49;100.00
14117;BME280;7137;51.436;6.544;2022-10-31T04:14:54;101633.47;;;13.59;100.00
14117;BME280;7137;51.436;6.544;2022-10-31T04:17:58;101627.56;;;13.82;97.93
14117;BME280;7137;51.436;6.544;2022-10-31T04:21:01;101625.41;;;13.65;99.51
14117;BME280;7137;51.436;6.544;2022-10-31T04:24:05;101626.63;;;13.55;100.00
14117;BME280;7137;51.436;6.544;2022-10-31T04:27:07;101625.00;;;13.49;100.00
14117;BME280;7137;51.436;6.544;2022-10-31T04:30:09;101623.09;;;13.56;100.00
14117;BME280;7137;51.436;6.544;2022-10-31T04:33:11;101628.09;;;13.63;100.00
14117;BME280;7137;51.436;6.544;2022-10-31T04:36:12;101631.47;;;13.69;100.00
14117;BME280;7137;51.436;6.544;2022-10-31T04:39:15;101633.03;;;13.74;100.00
14117;BME280;7137;51.436;6.544;2022-10-31T04:42:16;101622.38;;;13.79;100.00
14117;BME280;7137;51.436;6.544;2022-10-31T04:45:18;101636.09;;;13.88;100.00
14117;BME280;7137;51.436;6.544;2022-10-31T04:48:19;101637.81;;;13.89;100.00
14117;BME280;7137;51.436;6.544;2022-10-31T04:51:21;101646.50;;;13.91;100.00
14117;BME280;7137;51.436;6.544;2022-10-31T04:54:23;101643.94;;;13.90;100.00
14117;BME280;7137;51.436;6.544;2022-10-31T04:57:25;101640.59;;;13.85;100.00
14117;BME280;7137;51.436;6.544;2022-10-31T05:00:26;101632.00;;;13.80;100.00
14117;BME280;7137;51.436;6.544;2022-10-31T05:03:28;101622.63;;;13.71;100.00
14117;BME280;7137;51.436;6.544;2022-10-31T05:06:29;101614.03;;;13.66;100.00
14117;BME280;7137;51.436;6.544;2022-10-31T05:09:32;101602.56;;;13.69;100.00
14117;BME280;7137;51.436;6.544;2022-10-31T05:12:33;101618.69;;;13.56;100.00
14117;BME280;7137;51.436;6.544;2022-10-31T05:15:35;101625.09;;;13.46;100.00
14117;BME280;7137;51.436;6.544;2022-10-31T05:18:36;101606.06;;;13.40;100.00
14117;BME280;7137;51.436;6.544;2022-10-31T05:21:38;101605.31;;;13.34;100.00
14117;BME280;7137;51.436;6.544;2022-10-31T05:24:41;101612.41;;;13.31;100.00
14117;BME280;7137;51.436;6.544;2022-10-31T05:27:43;101612.56;;;13.26;100.00
14117;BME280;7137;51.436;6.544;2022-10-31T05:30:45;101597.63;;;13.28;100.00
14117;BME280;7137;51.436;6.544;2022-10-31T05:33:47;101596.91;;;13.23;100.00
14117;BME280;7137;51.436;6.544;2022-10-31T05:36:48;101605.66;;;13.22;100.00
14117;BME280;7137;51.436;6.544;2022-10-31T05:39:52;101604.03;;;13.18;100.00
14117;BME280;7137;51.436;6.544;2022-10-31T05:42:55;101609.38;;;13.14;100.00
14117;BME280;7137;51.436;6.544;2022-10-31T05:45:57;101619.09;;;13.10;100.00
14117;BME280;7137;51.436;6.544;2022-10-31T05:48:58;101615.63;;;13.10;100.00
14117;BME280;7137;51.436;6.544;2022-10-31T05:51:59;101612.16;;;13.07;100.00
14117;BME280;7137;51.436;6.544;2022-10-31T05:55:02;101592.13;;;13.05;100.00
14117;BME280;7137;51.436;6.544;2022-10-31T05:58:04;101596.59;;;13.01;100.00
14117;BME280;7137;51.436;6.544;2022-10-31T06:01:05;101595.78;;;12.99;100.00
14117;BME280;7137;51.436;6.544;2022-10-31T06:04:07;101601.06;;;12.98;100.00
14117;BME280;7137;51.436;6.544;2022-10-31T06:07:08;101599.34;;;12.97;100.00
14117;BME280;7137;51.436;6.544;2022-10-31T06:10:12;101587.16;;;12.94;100.00
14117;BME280;7137;51.436;6.544;2022-10-31T06:13:14;101584.66;;;12.90;100.00
14117;BME280;7137;51.436;6.544;2022-10-31T06:16:15;101589.97;;;12.88;100.00
14117;BME280;7137;51.436;6.544;2022-10-31T06:19:17;101597.81;;;12.88;100.00
14117;BME280;7137;51.436;6.544;2022-10-31T06:22:18;101606.56;;;12.89;100.00
14117;BME280;7137;51.436;6.544;2022-10-31T06:25:21;101604.84;;;12.88;100.00
14117;BME280;7137;51.436;6.544;2022-10-31T06:28:23;101609.25;;;12.86;100.00
14117;BME280;7137;51.436;6.544;2022-10-31T06:31:24;101602.22;;;12.88;100.00
14117;BME280;7137;51.436;6.544;2022-10-31T06:34:26;101599.47;;;12.92;100.00
14117;BME280;7137;51.436;6.544;2022-10-31T06:37:27;101595.94;;;12.93;100.00
14117;BME280;7137;51.436;6.544;2022-10-31T06:40:30;101602.78;;;12.99;100.00
14117;BME280;7137;51.436;6.544;2022-10-31T06:43:32;101600.94;;;13.02;100.00
14117;BME280;7137;51.436;6.544;2022-10-31T06:46:34;101603.41;;;13.07;100.00
14117;BME280;7137;51.436;6.544;2022-10-31T06:49:35;101606.75;;;13.14;100.00
14117;BME280;7137;51.436;6.544;2022-10-31T06:52:37;101606.59;;;13.20;100.00
14117;BME280;7137;51.436;6.544;2022-10-31T06:55:40;101615.22;;;13.25;100.00
14117;BME280;7137;51.436;6.544;2022-10-31T06:58:42;101614.22;;;13.29;100.00
14117;BME280;7137;51.436;6.544;2022-10-31T07:01:43;101621.19;;;13.30;100.00
14117;BME280;7137;51.436;6.544;2022-10-31T07:04:45;101615.03;;;13.31;100.00
14117;BME280;7137;51.436;6.544;2022-10-31T07:07:46;101613.22;;;13.33;100.00
14117;BME280;7137;51.436;6.544;2022-10-31T07:10:53;101602.56;;;13.39;100.00
14117;BME280;7137;51.436;6.544;2022-10-31T07:13:54;101599.84;;;13.42;100.00
14117;BME280;7137;51.436;6.544;2022-10-31T07:16:56;101604.91;;;13.48;100.00
14117;BME280;7137;51.436;6.544;2022-10-31T07:19:57;101615.34;;;13.51;100.00
14117;BME280;7137;51.436;6.544;2022-10-31T07:22:59;101613.50;;;13.55;100.00
14117;BME280;7137;51.436;6.544;2022-10-31T07:26:03;101616.00;;;13.58;100.00
14117;BME280;7137;51.436;6.544;2022-10-31T07:29:06;101614.09;;;13.63;100.00
14117;BME280;7137;51.436;6.544;2022-10-31T07:32:07;101616.63;;;13.68;100.00
14117;BME280;7137;51.436;6.544;2022-10-31T07:35:10;101606.63;;;13.79;100.00
14117;BME280;7137;51.436;6.544;2022-10-31T07:38:13;101608.75;;;13.95;100.00
14117;BME280;7137;51.436;6.544;2022-10-31T07:41:16;101618.63;;;14.15;100.00
14117;BME280;7137;51.436;6.544;2022-10-31T07:44:18;101614.75;;;14.27;100.00
14117;BME280;7137;51.436;6.544;2022-10-31T07:47:19;101611.78;;;14.38;99.22
14117;BME280;7137;51.436;6.544;2022-10-31T07:50:23;101619.31;;;14.48;99.73
14117;BME280;7137;51.436;6.544;2022-10-31T07:53:24;101626.06;;;14.57;99.37
14117;BME280;7137;51.436;6.544;2022-10-31T07:56:27;101621.41;;;14.65;99.75
14117;BME280;7137;51.436;6.544;2022-10-31T07:59:29;101625.25;;;14.81;97.47
14117;BME280;7137;51.436;6.544;2022-10-31T08:02:30;101635.47;;;14.89;96.02
14117;BME280;7137;51.436;6.544;2022-10-31T08:05:33;101628.03;;;15.02;95.36
14117;BME280;7137;51.436;6.544;2022-10-31T08:08:36;101619.69;;;15.14;99.22
14117;BME280;7137;51.436;6.544;2022-10-31T08:11:39;101625.97;;;15.35;100.00
14117;BME280;7137;51.436;6.544;2022-10-31T08:14:41;101624.44;;;15.53;100.00
14117;BME280;7137;51.436;6.544;2022-10-31T08:17:44;101626.28;;;15.74;100.00
14117;BME280;7137;51.436;6.544;2022-10-31T08:20:45;101626.97;;;16.01;97.75
14117;BME280;7137;51.436;6.544;2022-10-31T08:23:47;101628.53;;;16.28;96.07
14117;BME280;7137;51.436;6.544;2022-10-31T08:26:50;101626.81;;;16.49;93.83
14117;BME280;7137;51.436;6.544;2022-10-31T08:29:53;101630.03;;;16.78;92.51
14117;BME280;7137;51.436;6.544;2022-10-31T08:36:00;101617.28;;;17.47;85.33
14117;BME280;7137;51.436;6.544;2022-10-31T08:39:02;101623.00;;;17.57;82.47
14117;BME280;7137;51.436;6.544;2022-10-31T08:42:05;101615.88;;;17.96;82.02
14117;BME280;7137;51.436;6.544;2022-10-31T08:45:07;101623.69;;;18.53;79.36
14117;BME280;7137;51.436;6.544;2022-10-31T08:48:10;101629.66;;;19.25;77.44
14117;BME280;7137;51.436;6.544;2022-10-31T08:51:12;101624.41;;;19.90;73.82
14117;BME280;7137;51.436;6.544;2022-10-31T08:54:14;101626.28;;;20.20;72.27
14117;BME280;7137;51.436;6.544;2022-10-31T08:57:17;101616.81;;;20.00;70.49
14117;BME280;7137;51.436;6.544;2022-10-31T09:00:18;101614.81;;;20.03;70.43
14117;BME280;7137;51.436;6.544;2022-10-31T09:03:21;101612.66;;;20.26;70.38
14117;BME280;7137;51.436;6.544;2022-10-31T09:06:23;101607.88;;;20.16;69.01
14117;BME280;7137;51.436;6.544;2022-10-31T09:09:24;101598.84;;;19.73;69.57
14117;BME280;7137;51.436;6.544;2022-10-31T09:12:27;101592.91;;;19.19;72.62
14117;BME280;7137;51.436;6.544;2022-10-31T09:15:30;101593.28;;;18.61;75.12
14117;BME280;7137;51.436;6.544;2022-10-31T09:18:31;101590.56;;;18.09;76.63
14117;BME280;7137;51.436;6.544;2022-10-31T09:21:33;101582.41;;;17.78;77.92
14117;BME280;7137;51.436;6.544;2022-10-31T09:24:34;101571.31;;;17.51;79.47
14117;BME280;7137;51.436;6.544;2022-10-31T09:27:37;101564.78;;;17.39;81.89
14117;BME280;7137;51.436;6.544;2022-10-31T09:30:39;101550.50;;;17.43;83.29
14117;BME280;7137;51.436;6.544;2022-10-31T09:33:40;101551.25;;;17.47;83.43
14117;BME280;7137;51.436;6.544;2022-10-31T09:36:42;101554.38;;;17.55;83.16
14117;BME280;7137;51.436;6.544;2022-10-31T09:39:47;101553.28;;;17.59;81.59
14117;BME280;7137;51.436;6.544;2022-10-31T09:42:55;101556.09;;;17.56;81.58
14117;BME280;7137;51.436;6.544;2022-10-31T09:46:07;101542.53;;;17.64;80.18
14117;BME280;7137;51.436;6.544;2022-10-31T09:49:28;101534.78;;;17.59;83.08
14117;BME280;7137;51.436;6.544;2022-10-31T09:52:38;101529.97;;;17.69;82.58
14117;BME280;7137;51.436;6.544;2022-10-31T09:55:44;101522.88;;;17.88;80.67
14117;BME280;7137;51.436;6.544;2022-10-31T09:58:51;101532.53;;;18.06;81.49
14117;BME280;7137;51.436;6.544;2022-10-31T10:01:58;101531.91;;;18.53;79.82
14117;BME280;7137;51.436;6.544;2022-10-31T10:05:02;101528.16;;;18.92;75.44
14117;BME280;7137;51.436;6.544;2022-10-31T10:08:10;101528.22;;;19.39;74.76
14117;BME280;7137;51.436;6.544;2022-10-31T10:11:27;101532.25;;;19.46;73.27
14117;BME280;7137;51.436;6.544;2022-10-31T10:14:43;101532.09;;;19.49;73.19
14117;BME280;7137;51.436;6.544;2022-10-31T10:17:53;101534.00;;;19.63;73.47
14117;BME280;7137;51.436;6.544;2022-10-31T10:21:09;101535.88;;;19.61;70.48
14117;BME280;7137;51.436;6.544;2022-10-31T10:24:31;101533.56;;;19.55;70.94
14117;BME280;7137;51.436;6.544;2022-10-31T10:27:46;101528.97;;;19.59;71.46
14117;BME280;7137;51.436;6.544;2022-10-31T10:30:52;101517.59;;;19.72;72.87
14117;BME280;7137;51.436;6.544;2022-10-31T10:34:02;101511.41;;;19.88;72.77
14117;BME280;7137;51.436;6.544;2022-10-31T10:37:14;101501.38;;;19.93;71.06
14117;BME280;7137;51.436;6.544;2022-10-31T10:40:23;101491.91;;;19.89;72.09
14117;BME280;7137;51.436;6.544;2022-10-31T10:43:29;101498.56;;;19.80;72.11
14117;BME280;7137;51.436;6.544;2022-10-31T10:46:40;101496.00;;;19.78;71.93
14117;BME280;7137;51.436;6.544;2022-10-31T10:50:02;101481.66;;;19.51;71.90
14117;BME280;7137;51.436;6.544;2022-10-31T10:53:15;101462.69;;;19.43;73.00
14117;BME280;7137;51.436;6.544;2022-10-31T10:56:26;101461.16;;;19.54;73.16
14117;BME280;7137;51.436;6.544;2022-10-31T10:59:32;101444.88;;;19.13;74.50
14117;BME280;7137;51.436;6.544;2022-10-31T11:02:35;101425.56;;;19.27;75.36
14117;BME280;7137;51.436;6.544;2022-10-31T11:05:39;101404.66;;;19.07;75.64
14117;BME280;7137;51.436;6.544;2022-10-31T11:08:45;101395.28;;;19.01;76.44
14117;BME280;7137;51.436;6.544;2022-10-31T11:11:46;101406.19;;;19.11;76.24
14117;BME280;7137;51.436;6.544;2022-10-31T11:14:51;101421.91;;;19.14;75.83
14117;BME280;7137;51.436;6.544;2022-10-31T11:17:55;101437.38;;;19.37;74.29
14117;BME280;7137;51.436;6.544;2022-10-31T11:20:59;101444.44;;;19.52;74.16
14117;BME280;7137;51.436;6.544;2022-10-31T11:24:03;101448.22;;;19.64;74.18
14117;BME280;7137;51.436;6.544;2022-10-31T11:27:21;101442.13;;;19.78;73.02
14117;BME280;7137;51.436;6.544;2022-10-31T11:30:23;101439.44;;;19.94;71.13
14117;BME280;7137;51.436;6.544;2022-10-31T11:33:30;101427.63;;;19.99;71.34
14117;BME280;7137;51.436;6.544;2022-10-31T11:36:34;101419.84;;;20.10;70.95
14117;BME280;7137;51.436;6.544;2022-10-31T11:39:41;101413.34;;;20.16;71.92
14117;BME280;7137;51.436;6.544;2022-10-31T11:42:44;101404.25;;;20.20;71.78
14117;BME280;7137;51.436;6.544;2022-10-31T11:45:46;101410.97;;;20.26;71.05
14117;BME280;7137;51.436;6.544;2022-10-31T11:48:52;101413.31;;;20.46;71.13
14117;BME280;7137;51.436;6.544;2022-10-31T11:51:57;101401.25;;;20.55;70.46
14117;BME280;7137;51.436;6.544;2022-10-31T11:55:03;101400.03;;;20.74;69.37
14117;BME280;7137;51.436;6.544;2022-10-31T11:58:22;101386.16;;;20.84;67.88
14117;BME280;7137;51.436;6.544;2022-10-31T12:01:25;101377.28;;;20.70;69.12
14117;BME280;7137;51.436;6.544;2022-10-31T12:04:34;101368.59;;;20.81;69.76
14117;BME280;7137;51.436;6.544;2022-10-31T12:07:39;101348.63;;;21.02;67.38
14117;BME280;7137;51.436;6.544;2022-10-31T12:10:51;101345.88;;;21.04;67.69
14117;BME280;7137;51.436;6.544;2022-10-31T12:14:03;101340.34;;;21.07;67.63
14117;BME280;7137;51.436;6.544;2022-10-31T12:17:14;101335.66;;;20.98;66.32
14117;BME280;7137;51.436;6.544;2022-10-31T12:20:28;101324.94;;;20.99;65.73
14117;BME280;7137;51.436;6.544;2022-10-31T12:23:41;101328.06;;;20.92;65.63
14117;BME280;7137;51.436;6.544;2022-10-31T12:26:58;101311.97;;;20.81;66.65
14117;BME280;7137;51.436;6.544;2022-10-31T12:30:12;101301.75;;;20.74;66.55
14117;BME280;7137;51.436;6.544;2022-10-31T12:33:24;101293.38;;;20.81;66.73
14117;BME280;7137;51.436;6.544;2022-10-31T12:36:47;101280.38;;;20.90;66.72
14117;BME280;7137;51.436;6.544;2022-10-31T12:40:00;101264.09;;;20.68;65.39
14117;BME280;7137;51.436;6.544;2022-10-31T12:43:19;101268.28;;;20.72;66.18
14117;BME280;7137;51.436;6.544;2022-10-31T12:46:32;101267.97;;;20.77;66.12
14117;BME280;7137;51.436;6.544;2022-10-31T12:49:48;101264.13;;;20.95;65.66
14117;BME280;7137;51.436;6.544;2022-10-31T12:53:10;101242.78;;;21.09;64.06
14117;BME280;7137;51.436;6.544;2022-10-31T12:56:29;101236.53;;;21.10;64.40
14117;BME280;7137;51.436;6.544;2022-10-31T12:59:37;101227.97;;;20.92;64.73
14117;BME280;7137;51.436;6.544;2022-10-31T13:02:44;101229.34;;;20.85;64.83
14117;BME280;7137;51.436;6.544;2022-10-31T13:05:51;101214.28;;;20.86;64.91
14117;BME280;7137;51.436;6.544;2022-10-31T13:09:02;101201.00;;;20.86;64.78
14117;BME280;7137;51.436;6.544;2022-10-31T13:12:09;101188.13;;;20.92;64.46
14117;BME280;7137;51.436;6.544;2022-10-31T13:15:16;101184.09;;;20.87;65.10
14117;BME280;7137;51.436;6.544;2022-10-31T13:18:25;101178.16;;;20.83;66.06
14117;BME280;7137;51.436;6.544;2022-10-31T13:21:33;101166.31;;;20.74;64.59
14117;BME280;7137;51.436;6.544;2022-10-31T13:24:43;101153.66;;;20.65;64.99
14117;BME280;7137;51.436;6.544;2022-10-31T13:27:50;101146.03;;;20.73;64.91
14117;BME280;7137;51.436;6.544;2022-10-31T13:30:53;101150.50;;;20.73;64.40
14117;BME280;7137;51.436;6.544;2022-10-31T13:33:57;101146.84;;;20.61;63.99
14117;BME280;7137;51.436;6.544;2022-10-31T13:37:04;101150.50;;;20.73;63.93
14117;BME280;7137;51.436;6.544;2022-10-31T13:40:14;101151.56;;;20.70;63.98
14117;BME280;7137;51.436;6.544;2022-10-31T13:43:28;101160.03;;;20.63;64.59
14117;BME280;7137;51.436;6.544;2022-10-31T13:46:36;101157.72;;;20.71;66.24
14117;BME280;7137;51.436;6.544;2022-10-31T13:49:39;101152.00;;;20.77;66.52
14117;BME280;7137;51.436;6.544;2022-10-31T13:52:41;101147.53;;;20.78;66.79
14117;BME280;7137;51.436;6.544;2022-10-31T13:55:45;101136.06;;;20.77;66.87
14117;BME280;7137;51.436;6.544;2022-10-31T13:59:18;101109.72;;;20.74;64.49
14117;BME280;7137;51.436;6.544;2022-10-31T14:02:26;101107.69;;;20.78;64.37
14117;BME280;7137;51.436;6.544;2022-10-31T14:05:31;101117.25;;;20.80;63.51
14117;BME280;7137;51.436;6.544;2022-10-31T14:08:38;101120.13;;;20.90;62.90
14117;BME280;7137;51.436;6.544;2022-10-31T14:11:45;101101.03;;;20.85;62.44
14117;BME280;7137;51.436;6.544;2022-10-31T14:14:49;101090.16;;;20.75;62.63
14117;BME280;7137;51.436;6.544;2022-10-31T14:17:55;101088.03;;;20.80;63.50
14117;BME280;7137;51.436;6.544;2022-10-31T14:20:58;101088.47;;;20.87;63.34
14117;BME280;7137;51.436;6.544;2022-10-31T14:24:00;101077.88;;;20.99;62.69
14117;BME280;7137;51.436;6.544;2022-10-31T14:27:30;101082.00;;;21.16;61.15
14117;BME280;7137;51.436;6.544;2022-10-31T14:30:28;101076.13;;;21.11;60.56
14117;BME280;7137;51.436;6.544;2022-10-31T14:33:30;101069.69;;;21.02;61.52
14117;BME280;7137;51.436;6.544;2022-10-31T14:36:38;101067.44;;;20.96;61.96
14117;BME280;7137;51.436;6.544;2022-10-31T14:39:53;101065.94;;;20.92;62.29
14117;BME280;7137;51.436;6.544;2022-10-31T14:46:39;101048.72;;;21.11;62.36
14117;BME280;7137;51.436;6.544;2022-10-31T14:53:17;101034.06;;;21.18;60.05
14117;BME280;7137;51.436;6.544;2022-10-31T14:56:22;101025.97;;;21.19;59.82
14117;BME280;7137;51.436;6.544;2022-10-31T14:59:31;101030.97;;;21.11;60.38
14117;BME280;7137;51.436;6.544;2022-10-31T15:02:45;101026.00;;;21.07;60.94
14117;BME280;7137;51.436;6.544;2022-10-31T15:05:52;101018.47;;;21.00;61.41
14117;BME280;7137;51.436;6.544;2022-10-31T15:08:54;101003.72;;;20.84;61.92
14117;BME280;7137;51.436;6.544;2022-10-31T15:11:57;101000.28;;;20.69;61.35
14117;BME280;7137;51.436;6.544;2022-10-31T15:15:12;101000.94;;;20.72;61.03
14117;BME280;7137;51.436;6.544;2022-10-31T15:18:17;100999.88;;;20.62;61.92
14117;BME280;7137;51.436;6.544;2022-10-31T15:21:20;101004.56;;;20.59;61.96
14117;BME280;7137;51.436;6.544;2022-10-31T15:24:25;101006.13;;;20.49;62.85
14117;BME280;7137;51.436;6.544;2022-10-31T15:27:29;101006.56;;;20.42;62.28
14117;BME280;7137;51.436;6.544;2022-10-31T15:30:33;101004.91;;;20.27;63.46
14117;BME280;7137;51.436;6.544;2022-10-31T15:33:40;100995.75;;;20.19;64.57
14117;BME280;7137;51.436;6.544;2022-10-31T15:36:41;100990.56;;;20.17;64.31
14117;BME280;7137;51.436;6.544;2022-10-31T15:39:44;100983.19;;;20.08;64.01
14117;BME280;7137;51.436;6.544;2022-10-31T15:42:50;100987.34;;;19.99;65.11
14117;BME280;7137;51.436;6.544;2022-10-31T15:45:59;100981.63;;;19.78;65.15
14117;BME280;7137;51.436;6.544;2022-10-31T15:49:01;100966.38;;;19.82;64.33
14117;BME280;7137;51.436;6.544;2022-10-31T15:52:06;100970.91;;;19.80;64.95
14117;BME280;7137;51.436;6.544;2022-10-31T15:55:16;100968.38;;;19.78;64.40
14117;BME280;7137;51.436;6.544;2022-10-31T15:58:19;100959.41;;;19.67;65.67
14117;BME280;7137;51.436;6.544;2022-10-31T16:01:24;100959.53;;;19.65;64.87
14117;BME280;7137;51.436;6.544;2022-10-31T16:04:27;100953.28;;;19.52;66.33
14117;BME280;7137;51.436;6.544;2022-10-31T16:07:29;100953.38;;;19.50;65.66
14117;BME280;7137;51.436;6.544;2022-10-31T16:10:33;100953.97;;;19.55;65.76
14117;BME280;7137;51.436;6.544;2022-10-31T16:13:37;100955.28;;;19.48;65.76
14117;BME280;7137;51.436;6.544;2022-10-31T16:16:45;100948.22;;;19.35;66.80
14117;BME280;7137;51.436;6.544;2022-10-31T16:19:51;100940.59;;;19.30;67.01
14117;BME280;7137;51.436;6.544;2022-10-31T16:22:55;100946.34;;;19.37;65.05
14117;BME280;7137;51.436;6.544;2022-10-31T16:25:57;100943.41;;;19.27;66.70
14117;BME280;7137;51.436;6.544;2022-10-31T16:28:59;100949.56;;;19.27;65.08
14117;BME280;7137;51.436;6.544;2022-10-31T16:32:02;100947.22;;;19.23;66.98
14117;BME280;7137;51.436;6.544;2022-10-31T16:35:21;100942.34;;;19.03;66.26
14117;BME280;7137;51.436;6.544;2022-10-31T16:38:24;100953.03;;;18.87;67.23